sensor_id;sensor_type;location;lat;lon;timestamp;pressure;altitude;pressure_sealevel;temperature;humidity
71299;BME280;59083;47.974;21.722;2023-06-04T00:00:51;100586.13;;;13.68;51.66
71299;BME280;59083;47.974;21.722;2023-06-04T00:03:53;100587.38;;;13.58;51.85
71299;BME280;59083;47.974;21.722;2023-06-04T00:06:54;100588.16;;;13.52;52.09
71299;BME280;59083;47.974;21.722;2023-06-04T00:09:55;100601.34;;;13.47;52.02
71299;BME280;59083;47.974;21.722;2023-06-04T00:12:56;100594.34;;;13.53;51.91
71299;BME280;59083;47.974;21.722;2023-06-04T00:15:58;100588.81;;;13.68;51.77
71299;BME280;59083;47.974;21.722;2023-06-04T00:18:59;100591.50;;;13.68;51.56
71299;BME280;59083;47.974;21.722;2023-06-04T00:22:00;100587.38;;;13.58;51.79
71299;BME280;59083;47.974;21.722;2023-06-04T00:25:01;100581.16;;;13.51;52.38
71299;BME280;59083;47.974;21.722;2023-06-04T00:28:03;100578.25;;;13.46;52.58
71299;BME280;59083;47.974;21.722;2023-06-04T00:31:05;100575.78;;;13.38;52.53
71299;BME280;59083;47.974;21.722;2023-06-04T00:34:07;100575.16;;;13.36;52.96
71299;BME280;59083;47.974;21.722;2023-06-04T00:37:08;100577.38;;;13.26;53.22
71299;BME280;59083;47.974;21.722;2023-06-04T00:40:10;100578.97;;;13.14;53.67
71299;BME280;59083;47.974;21.722;2023-06-04T00:43:11;100572.00;;;13.19;53.61
71299;BME280;59083;47.974;21.722;2023-06-04T00:46:14;100579.81;;;13.14;54.17
71299;BME280;59083;47.974;21.722;2023-06-04T00:49:19;100581.78;;;13.06;54.36
71299;BME280;59083;47.974;21.722;2023-06-04T00:52:21;100571.03;;;12.93;55.09
71299;BME280;59083;47.974;21.722;2023-06-04T00:55:22;100565.41;;;12.88;55.71
71299;BME280;59083;47.974;21.722;2023-06-04T00:58:24;100575.81;;;12.69;56.60
71299;BME280;59083;47.974;21.722;2023-06-04T01:01:51;100571.81;;;12.52;57.45
71299;BME280;59083;47.974;21.722;2023-06-04T01:05:33;100566.25;;;12.54;57.43
71299;BME280;59083;47.974;21.722;2023-06-04T01:08:38;100567.84;;;12.48;57.91
71299;BME280;59083;47.974;21.722;2023-06-04T01:11:43;100571.16;;;12.50;57.91
71299;BME280;59083;47.974;21.722;2023-06-04T01:14:44;100567.38;;;12.38;58.34
71299;BME280;59083;47.974;21.722;2023-06-04T01:17:49;100573.19;;;12.48;58.04
71299;BME280;59083;47.974;21.722;2023-06-04T01:20:52;100571.56;;;12.47;57.88
71299;BME280;59083;47.974;21.722;2023-06-04T01:23:54;100574.38;;;12.39;58.23
71299;BME280;59083;47.974;21.722;2023-06-04T01:27:00;100570.50;;;12.41;58.11
71299;BME280;59083;47.974;21.722;2023-06-04T01:30:02;100571.31;;;12.42;57.93
71299;BME280;59083;47.974;21.722;2023-06-04T01:33:04;100574.38;;;12.39;58.00
71299;BME280;59083;47.974;21.722;2023-06-04T01:36:06;100577.69;;;12.41;57.65
71299;BME280;59083;47.974;21.722;2023-06-04T01:39:10;100576.03;;;12.40;57.65
71299;BME280;59083;47.974;21.722;2023-06-04T01:42:12;100584.44;;;12.37;57.95
71299;BME280;59083;47.974;21.722;2023-06-04T01:45:13;100578.75;;;12.47;58.26
71299;BME280;59083;47.974;21.722;2023-06-04T01:48:14;100577.72;;;12.48;57.82
71299;BME280;59083;47.974;21.722;2023-06-04T01:51:16;100573.50;;;12.32;57.83
71299;BME280;59083;47.974;21.722;2023-06-04T01:54:17;100581.50;;;12.32;57.80
71299;BME280;59083;47.974;21.722;2023-06-04T01:57:19;100573.50;;;12.32;57.53
71299;BME280;59083;47.974;21.722;2023-06-04T02:00:21;100582.09;;;12.27;57.85
71299;BME280;59083;47.974;21.722;2023-06-04T02:03:23;100584.34;;;12.24;57.84
71299;BME280;59083;47.974;21.722;2023-06-04T02:06:25;100583.00;;;12.13;58.43
71299;BME280;59083;47.974;21.722;2023-06-04T02:09:31;100581.38;;;12.12;58.45
71299;BME280;59083;47.974;21.722;2023-06-04T02:12:32;100580.38;;;12.20;58.17
71299;BME280;59083;47.974;21.722;2023-06-04T02:15:33;100585.13;;;12.18;57.94
71299;BME280;59083;47.974;21.722;2023-06-04T02:18:34;100593.00;;;12.05;58.94
71299;BME280;59083;47.974;21.722;2023-06-04T02:21:37;100590.56;;;12.10;59.03
71299;BME280;59083;47.974;21.722;2023-06-04T02:24:38;100594.25;;;12.09;58.65
71299;BME280;59083;47.974;21.722;2023-06-04T02:27:40;100602.66;;;12.06;59.14
71299;BME280;59083;47.974;21.722;2023-06-04T02:30:42;100601.25;;;12.10;58.97
71299;BME280;59083;47.974;21.722;2023-06-04T02:33:43;100601.84;;;12.05;59.47
71299;BME280;59083;47.974;21.722;2023-06-04T02:36:44;100597.69;;;12.24;59.13
71299;BME280;59083;47.974;21.722;2023-06-04T02:39:49;100605.34;;;12.06;59.21
71299;BME280;59083;47.974;21.722;2023-06-04T02:42:51;100610.63;;;11.99;59.89
71299;BME280;59083;47.974;21.722;2023-06-04T02:45:53;100613.34;;;12.06;60.02
71299;BME280;59083;47.974;21.722;2023-06-04T02:48:54;100610.28;;;12.09;60.70
71299;BME280;59083;47.974;21.722;2023-06-04T02:51:55;100613.09;;;12.00;60.46
71299;BME280;59083;47.974;21.722;2023-06-04T02:54:57;100615.31;;;12.18;60.06
71299;BME280;59083;47.974;21.722;2023-06-04T02:57:58;100619.06;;;12.24;59.93
71299;BME280;59083;47.974;21.722;2023-06-04T03:00:59;100617.53;;;12.15;60.20
71299;BME280;59083;47.974;21.722;2023-06-04T03:04:01;100620.34;;;12.07;59.67
71299;BME280;59083;47.974;21.722;2023-06-04T03:07:10;100613.87;;;11.94;60.78
71299;BME280;59083;47.974;21.722;2023-06-04T03:10:15;100618.38;;;11.94;60.50
71299;BME280;59083;47.974;21.722;2023-06-04T03:13:16;100624.09;;;12.12;61.27
71299;BME280;59083;47.974;21.722;2023-06-04T03:16:18;100611.69;;;12.26;60.96
71299;BME280;59083;47.974;21.722;2023-06-04T03:19:19;100621.22;;;12.14;61.26
71299;BME280;59083;47.974;21.722;2023-06-04T03:22:20;100620.09;;;12.02;61.13
71299;BME280;59083;47.974;21.722;2023-06-04T03:25:22;100628.75;;;12.04;61.01
71299;BME280;59083;47.974;21.722;2023-06-04T03:28:24;100629.97;;;12.01;61.33
71299;BME280;59083;47.974;21.722;2023-06-04T03:31:26;100629.63;;;12.11;61.06
71299;BME280;59083;47.974;21.722;2023-06-04T03:34:28;100626.72;;;12.06;60.83
71299;BME280;59083;47.974;21.722;2023-06-04T03:37:32;100627.72;;;11.83;61.76
71299;BME280;59083;47.974;21.722;2023-06-04T03:40:34;100644.00;;;12.10;60.71
71299;BME280;59083;47.974;21.722;2023-06-04T03:43:36;100623.91;;;12.14;60.31
71299;BME280;59083;47.974;21.722;2023-06-04T03:46:38;100626.13;;;12.87;57.89
71299;BME280;59083;47.974;21.722;2023-06-04T03:49:39;100628.62;;;13.23;56.32
71299;BME280;59083;47.974;21.722;2023-06-04T03:52:42;100632.16;;;13.91;54.40
71299;BME280;59083;47.974;21.722;2023-06-04T03:55:43;100636.97;;;14.48;52.26
71299;BME280;59083;47.974;21.722;2023-06-04T03:58:44;100641.91;;;14.84;51.39
71299;BME280;59083;47.974;21.722;2023-06-04T04:01:46;100636.53;;;14.97;50.59
71299;BME280;59083;47.974;21.722;2023-06-04T04:04:47;100631.28;;;15.22;50.06
71299;BME280;59083;47.974;21.722;2023-06-04T04:07:49;100633.75;;;15.30;49.80
71299;BME280;59083;47.974;21.722;2023-06-04T04:10:51;100632.59;;;16.02;48.12
71299;BME280;59083;47.974;21.722;2023-06-04T04:13:52;100638.78;;;16.34;46.79
71299;BME280;59083;47.974;21.722;2023-06-04T04:16:54;100641.53;;;16.52;46.22
71299;BME280;59083;47.974;21.722;2023-06-04T04:19:55;100640.25;;;16.61;46.29
71299;BME280;59083;47.974;21.722;2023-06-04T04:22:57;100643.31;;;17.08;45.25
71299;BME280;59083;47.974;21.722;2023-06-04T04:25:59;100648.97;;;17.00;45.19
71299;BME280;59083;47.974;21.722;2023-06-04T04:29:01;100638.19;;;16.57;45.04
71299;BME280;59083;47.974;21.722;2023-06-04T04:32:03;100643.87;;;16.42;45.25
71299;BME280;59083;47.974;21.722;2023-06-04T04:35:11;100635.91;;;17.40;43.60
71299;BME280;59083;47.974;21.722;2023-06-04T04:38:12;100646.81;;;18.11;42.05
71299;BME280;59083;47.974;21.722;2023-06-04T04:41:15;100640.06;;;19.76;39.64
71299;BME280;59083;47.974;21.722;2023-06-04T04:44:16;100633.19;;;18.94;40.04
71299;BME280;59083;47.974;21.722;2023-06-04T04:47:18;100639.56;;;19.39;39.10
71299;BME280;59083;47.974;21.722;2023-06-04T04:50:19;100640.31;;;19.47;38.77
71299;BME280;59083;47.974;21.722;2023-06-04T04:53:21;100638.41;;;20.49;36.94
71299;BME280;59083;47.974;21.722;2023-06-04T04:56:23;100635.72;;;21.21;35.07
71299;BME280;59083;47.974;21.722;2023-06-04T04:59:24;100635.59;;;20.27;36.37
71299;BME280;59083;47.974;21.722;2023-06-04T05:02:26;100642.50;;;20.68;36.26
71299;BME280;59083;47.974;21.722;2023-06-04T05:05:28;100632.69;;;19.09;38.58
71299;BME280;59083;47.974;21.722;2023-06-04T05:08:29;100638.09;;;19.09;38.77
71299;BME280;59083;47.974;21.722;2023-06-04T05:11:31;100631.31;;;18.60;40.06
71299;BME280;59083;47.974;21.722;2023-06-04T05:14:32;100636.84;;;18.23;41.16
71299;BME280;59083;47.974;21.722;2023-06-04T05:17:37;100641.75;;;18.91;40.16
71299;BME280;59083;47.974;21.722;2023-06-04T05:20:42;100647.66;;;19.63;39.30
71299;BME280;59083;47.974;21.722;2023-06-04T05:23:44;100652.34;;;19.67;39.22
71299;BME280;59083;47.974;21.722;2023-06-04T05:26:49;100650.94;;;19.65;39.33
71299;BME280;59083;47.974;21.722;2023-06-04T05:29:51;100658.38;;;20.14;38.28
71299;BME280;59083;47.974;21.722;2023-06-04T05:32:52;100662.78;;;20.04;39.18
71299;BME280;59083;47.974;21.722;2023-06-04T05:35:56;100662.88;;;20.54;38.06
71299;BME280;59083;47.974;21.722;2023-06-04T05:38:59;100654.66;;;20.82;36.92
71299;BME280;59083;47.974;21.722;2023-06-04T05:42:02;100659.16;;;21.32;36.50
71299;BME280;59083;47.974;21.722;2023-06-04T05:45:04;100663.53;;;21.33;36.34
71299;BME280;59083;47.974;21.722;2023-06-04T05:48:05;100667.19;;;21.65;34.83
71299;BME280;59083;47.974;21.722;2023-06-04T05:51:07;100670.56;;;22.90;32.88
71299;BME280;59083;47.974;21.722;2023-06-04T05:54:09;100670.69;;;24.60;31.25
71299;BME280;59083;47.974;21.722;2023-06-04T05:57:11;100673.69;;;24.43;29.90
71299;BME280;59083;47.974;21.722;2023-06-04T06:00:13;100671.72;;;25.09;29.94
71299;BME280;59083;47.974;21.722;2023-06-04T06:03:15;100672.56;;;26.96;28.22
71299;BME280;59083;47.974;21.722;2023-06-04T06:06:18;100668.97;;;27.01;27.06
71299;BME280;59083;47.974;21.722;2023-06-04T06:09:20;100673.81;;;27.09;26.57
71299;BME280;59083;47.974;21.722;2023-06-04T06:12:23;100679.91;;;27.96;25.55
71299;BME280;59083;47.974;21.722;2023-06-04T06:15:24;100680.72;;;27.97;25.45
71299;BME280;59083;47.974;21.722;2023-06-04T06:18:26;100677.13;;;27.30;26.75
71299;BME280;59083;47.974;21.722;2023-06-04T06:21:27;100671.75;;;26.96;26.87
71299;BME280;59083;47.974;21.722;2023-06-04T06:24:29;100679.12;;;26.66;27.89
71299;BME280;59083;47.974;21.722;2023-06-04T06:27:30;100682.94;;;27.52;26.08
71299;BME280;59083;47.974;21.722;2023-06-04T06:30:32;100694.13;;;26.35;27.35
71299;BME280;59083;47.974;21.722;2023-06-04T06:33:33;100681.56;;;27.02;26.37
71299;BME280;59083;47.974;21.722;2023-06-04T06:36:34;100686.78;;;26.98;26.86
71299;BME280;59083;47.974;21.722;2023-06-04T06:39:35;100683.75;;;26.32;26.52
71299;BME280;59083;47.974;21.722;2023-06-04T06:42:37;100694.25;;;27.40;25.89
71299;BME280;59083;47.974;21.722;2023-06-04T06:45:38;100685.31;;;27.11;25.99
71299;BME280;59083;47.974;21.722;2023-06-04T06:48:39;100691.84;;;27.63;24.94
71299;BME280;59083;47.974;21.722;2023-06-04T06:51:41;100698.69;;;28.77;24.22
71299;BME280;59083;47.974;21.722;2023-06-04T06:54:43;100695.91;;;28.26;24.15
71299;BME280;59083;47.974;21.722;2023-06-04T06:57:44;100700.50;;;28.31;24.33
71299;BME280;59083;47.974;21.722;2023-06-04T07:00:45;100701.37;;;27.89;24.95
71299;BME280;59083;47.974;21.722;2023-06-04T07:03:46;100711.94;;;28.89;24.69
71299;BME280;59083;47.974;21.722;2023-06-04T07:06:48;100704.91;;;28.13;25.82
71299;BME280;59083;47.974;21.722;2023-06-04T07:09:49;100710.88;;;28.53;25.30
71299;BME280;59083;47.974;21.722;2023-06-04T07:12:51;100718.25;;;27.53;26.06
71299;BME280;59083;47.974;21.722;2023-06-04T07:15:52;100713.88;;;28.19;25.53
71299;BME280;59083;47.974;21.722;2023-06-04T07:18:54;100715.75;;;28.56;25.18
71299;BME280;59083;47.974;21.722;2023-06-04T07:21:55;100707.25;;;28.01;25.69
71299;BME280;59083;47.974;21.722;2023-06-04T07:24:56;100705.03;;;29.38;24.65
71299;BME280;59083;47.974;21.722;2023-06-04T07:27:57;100709.16;;;28.75;25.37
71299;BME280;59083;47.974;21.722;2023-06-04T07:31:00;100705.72;;;29.84;23.97
71299;BME280;59083;47.974;21.722;2023-06-04T07:34:01;100703.19;;;29.47;24.54
71299;BME280;59083;47.974;21.722;2023-06-04T07:37:03;100715.53;;;29.03;24.82
71299;BME280;59083;47.974;21.722;2023-06-04T07:40:04;100708.06;;;29.77;23.97
71299;BME280;59083;47.974;21.722;2023-06-04T07:43:06;100707.09;;;30.90;22.79
71299;BME280;59083;47.974;21.722;2023-06-04T07:46:07;100702.94;;;29.30;24.84
71299;BME280;59083;47.974;21.722;2023-06-04T07:49:09;100708.13;;;30.49;23.71
71299;BME280;59083;47.974;21.722;2023-06-04T07:52:10;100710.47;;;31.09;22.67
71299;BME280;59083;47.974;21.722;2023-06-04T07:55:11;100714.59;;;29.95;23.84
71299;BME280;59083;47.974;21.722;2023-06-04T07:58:12;100717.34;;;31.20;22.79
71299;BME280;59083;47.974;21.722;2023-06-04T08:01:14;100720.69;;;29.92;24.45
71299;BME280;59083;47.974;21.722;2023-06-04T08:04:15;100716.81;;;29.52;24.63
71299;BME280;59083;47.974;21.722;2023-06-04T08:07:16;100723.06;;;29.11;24.53
71299;BME280;59083;47.974;21.722;2023-06-04T08:10:18;100724.81;;;29.21;24.86
71299;BME280;59083;47.974;21.722;2023-06-04T08:13:19;100729.69;;;28.78;25.65
71299;BME280;59083;47.974;21.722;2023-06-04T08:16:21;100720.06;;;29.40;24.56
71299;BME280;59083;47.974;21.722;2023-06-04T08:19:22;100720.44;;;28.55;25.58
71299;BME280;59083;47.974;21.722;2023-06-04T08:22:25;100719.38;;;28.70;25.83
71299;BME280;59083;47.974;21.722;2023-06-04T08:25:26;100724.09;;;29.15;25.36
71299;BME280;59083;47.974;21.722;2023-06-04T08:28:27;100721.66;;;30.10;24.62
71299;BME280;59083;47.974;21.722;2023-06-04T08:31:28;100732.25;;;30.03;25.09
71299;BME280;59083;47.974;21.722;2023-06-04T08:34:30;100730.09;;;28.34;26.59
71299;BME280;59083;47.974;21.722;2023-06-04T08:37:31;100728.41;;;29.76;25.27
71299;BME280;59083;47.974;21.722;2023-06-04T08:40:32;100725.03;;;27.80;27.26
71299;BME280;59083;47.974;21.722;2023-06-04T08:43:36;100728.47;;;28.84;26.35
71299;BME280;59083;47.974;21.722;2023-06-04T08:46:39;100725.97;;;29.47;25.84
71299;BME280;59083;47.974;21.722;2023-06-04T08:49:43;100730.78;;;29.09;26.02
71299;BME280;59083;47.974;21.722;2023-06-04T08:52:47;100726.53;;;29.31;25.64
71299;BME280;59083;47.974;21.722;2023-06-04T08:55:50;100721.22;;;30.30;25.03
71299;BME280;59083;47.974;21.722;2023-06-04T08:58:52;100718.25;;;30.62;24.49
71299;BME280;59083;47.974;21.722;2023-06-04T09:01:58;100719.44;;;30.92;24.46
71299;BME280;59083;47.974;21.722;2023-06-04T09:05:00;100717.88;;;31.31;24.12
71299;BME280;59083;47.974;21.722;2023-06-04T09:08:04;100723.56;;;31.03;24.50
71299;BME280;59083;47.974;21.722;2023-06-04T09:11:10;100714.75;;;30.12;24.99
71299;BME280;59083;47.974;21.722;2023-06-04T09:14:14;100722.22;;;30.34;25.04
71299;BME280;59083;47.974;21.722;2023-06-04T09:17:23;100719.88;;;30.63;25.04
71299;BME280;59083;47.974;21.722;2023-06-04T09:20:24;100709.59;;;30.77;24.83
71299;BME280;59083;47.974;21.722;2023-06-04T09:23:26;100718.44;;;30.66;25.02
71299;BME280;59083;47.974;21.722;2023-06-04T09:26:28;100725.31;;;29.09;26.67
71299;BME280;59083;47.974;21.722;2023-06-04T09:29:30;100714.44;;;28.34;27.13
71299;BME280;59083;47.974;21.722;2023-06-04T09:32:31;100714.41;;;27.97;28.03
71299;BME280;59083;47.974;21.722;2023-06-04T09:35:33;100714.97;;;27.28;28.90
71299;BME280;59083;47.974;21.722;2023-06-04T09:38:35;100707.53;;;26.70;29.00
71299;BME280;59083;47.974;21.722;2023-06-04T09:41:36;100705.63;;;26.37;29.96
71299;BME280;59083;47.974;21.722;2023-06-04T09:44:44;100703.12;;;26.74;29.83
71299;BME280;59083;47.974;21.722;2023-06-04T09:47:48;100683.69;;;26.76;29.80
71299;BME280;59083;47.974;21.722;2023-06-04T09:50:49;100715.69;;;26.76;28.92
71299;BME280;59083;47.974;21.722;2023-06-04T09:53:59;100725.09;;;26.64;29.09
71299;BME280;59083;47.974;21.722;2023-06-04T09:57:00;100720.75;;;26.58;29.00
71299;BME280;59083;47.974;21.722;2023-06-04T10:00:01;100722.41;;;26.54;29.14
71299;BME280;59083;47.974;21.722;2023-06-04T10:03:14;100718.22;;;27.01;28.75
71299;BME280;59083;47.974;21.722;2023-06-04T10:06:18;100723.28;;;27.41;28.29
71299;BME280;59083;47.974;21.722;2023-06-04T10:09:22;100720.50;;;26.94;27.98
71299;BME280;59083;47.974;21.722;2023-06-04T10:12:31;100715.28;;;27.74;28.51
71299;BME280;59083;47.974;21.722;2023-06-04T10:15:32;100717.53;;;27.90;27.04
71299;BME280;59083;47.974;21.722;2023-06-04T10:18:35;100724.94;;;27.90;27.83
71299;BME280;59083;47.974;21.722;2023-06-04T10:21:37;100720.00;;;27.16;28.46
71299;BME280;59083;47.974;21.722;2023-06-04T10:24:38;100724.19;;;28.03;27.07
71299;BME280;59083;47.974;21.722;2023-06-04T10:27:40;100722.59;;;28.58;25.19
71299;BME280;59083;47.974;21.722;2023-06-04T10:30:41;100718.72;;;28.78;25.53
71299;BME280;59083;47.974;21.722;2023-06-04T10:33:42;100723.62;;;28.44;25.81
71299;BME280;59083;47.974;21.722;2023-06-04T10:36:44;100720.97;;;28.39;25.20
71299;BME280;59083;47.974;21.722;2023-06-04T10:39:51;100720.97;;;28.76;25.32
71299;BME280;59083;47.974;21.722;2023-06-04T10:42:53;100722.16;;;28.32;25.06
71299;BME280;59083;47.974;21.722;2023-06-04T10:45:54;100709.00;;;27.92;25.12
71299;BME280;59083;47.974;21.722;2023-06-04T10:48:56;100713.62;;;27.49;25.02
71299;BME280;59083;47.974;21.722;2023-06-04T10:51:57;100712.31;;;26.84;25.49
71299;BME280;59083;47.974;21.722;2023-06-04T10:55:08;100718.53;;;27.52;25.54
71299;BME280;59083;47.974;21.722;2023-06-04T10:58:10;100720.72;;;27.50;26.18
71299;BME280;59083;47.974;21.722;2023-06-04T11:01:11;100719.47;;;26.80;26.04
71299;BME280;59083;47.974;21.722;2023-06-04T11:04:24;100708.19;;;26.91;25.75
71299;BME280;59083;47.974;21.722;2023-06-04T11:07:26;100706.00;;;27.17;25.62
71299;BME280;59083;47.974;21.722;2023-06-04T11:10:32;100704.66;;;26.86;27.32
71299;BME280;59083;47.974;21.722;2023-06-04T11:13:34;100710.22;;;26.76;26.24
71299;BME280;59083;47.974;21.722;2023-06-04T11:16:35;100701.13;;;26.51;27.15
71299;BME280;59083;47.974;21.722;2023-06-04T11:19:37;100667.03;;;26.39;26.54
71299;BME280;59083;47.974;21.722;2023-06-04T11:22:38;100700.84;;;26.87;26.04
71299;BME280;59083;47.974;21.722;2023-06-04T11:25:40;100701.00;;;26.66;25.42
71299;BME280;59083;47.974;21.722;2023-06-04T11:28:43;100707.19;;;26.43;25.65
71299;BME280;59083;47.974;21.722;2023-06-04T11:31:49;100711.97;;;25.68;24.55
71299;BME280;59083;47.974;21.722;2023-06-04T11:34:50;100706.53;;;25.58;24.57
71299;BME280;59083;47.974;21.722;2023-06-04T11:37:55;100712.53;;;25.65;23.88
71299;BME280;59083;47.974;21.722;2023-06-04T11:40:58;100708.25;;;25.29;22.85
71299;BME280;59083;47.974;21.722;2023-06-04T11:44:04;100708.19;;;25.59;23.66
71299;BME280;59083;47.974;21.722;2023-06-04T11:47:06;100702.19;;;25.42;24.26
71299;BME280;59083;47.974;21.722;2023-06-04T11:50:09;100694.44;;;25.84;24.63
71299;BME280;59083;47.974;21.722;2023-06-04T11:53:10;100711.94;;;26.22;24.31
71299;BME280;59083;47.974;21.722;2023-06-04T11:56:12;100712.50;;;26.29;24.51
71299;BME280;59083;47.974;21.722;2023-06-04T11:59:14;100711.78;;;26.04;24.20
71299;BME280;59083;47.974;21.722;2023-06-04T12:02:16;100711.37;;;25.76;24.32
71299;BME280;59083;47.974;21.722;2023-06-04T12:05:18;100708.03;;;25.95;24.55
71299;BME280;59083;47.974;21.722;2023-06-04T12:08:19;100711.19;;;26.12;24.74
71299;BME280;59083;47.974;21.722;2023-06-04T12:11:24;100708.50;;;26.07;24.64
71299;BME280;59083;47.974;21.722;2023-06-04T12:14:27;100709.59;;;26.06;24.70
71299;BME280;59083;47.974;21.722;2023-06-04T12:17:29;100705.34;;;25.84;25.01
71299;BME280;59083;47.974;21.722;2023-06-04T12:20:33;100705.19;;;25.40;25.25
71299;BME280;59083;47.974;21.722;2023-06-04T12:23:35;100707.72;;;25.22;25.32
71299;BME280;59083;47.974;21.722;2023-06-04T12:26:37;100696.56;;;24.98;25.54
71299;BME280;59083;47.974;21.722;2023-06-04T12:29:41;100700.00;;;25.44;25.77
71299;BME280;59083;47.974;21.722;2023-06-04T12:32:42;100703.25;;;25.46;25.42
71299;BME280;59083;47.974;21.722;2023-06-04T12:35:44;100706.06;;;25.31;25.59
71299;BME280;59083;47.974;21.722;2023-06-04T12:38:46;100694.81;;;25.47;25.95
71299;BME280;59083;47.974;21.722;2023-06-04T12:41:47;100694.50;;;25.64;25.85
71299;BME280;59083;47.974;21.722;2023-06-04T12:44:49;100694.47;;;25.74;25.76
71299;BME280;59083;47.974;21.722;2023-06-04T12:47:50;100689.62;;;25.51;25.39
71299;BME280;59083;47.974;21.722;2023-06-04T12:50:51;100687.22;;;25.39;25.71
71299;BME280;59083;47.974;21.722;2023-06-04T12:53:52;100692.88;;;25.58;25.74
71299;BME280;59083;47.974;21.722;2023-06-04T12:56:55;100687.44;;;25.58;25.79
71299;BME280;59083;47.974;21.722;2023-06-04T12:59:58;100657.41;;;25.48;26.15
71299;BME280;59083;47.974;21.722;2023-06-04T13:03:00;100693.97;;;25.52;25.91
71299;BME280;59083;47.974;21.722;2023-06-04T13:06:01;100688.53;;;25.47;26.07
71299;BME280;59083;47.974;21.722;2023-06-04T13:09:03;100687.41;;;25.63;26.25
71299;BME280;59083;47.974;21.722;2023-06-04T13:12:09;100698.31;;;25.63;26.18
71299;BME280;59083;47.974;21.722;2023-06-04T13:15:11;100686.44;;;25.29;26.20
71299;BME280;59083;47.974;21.722;2023-06-04T13:18:12;100688.63;;;25.17;26.12
71299;BME280;59083;47.974;21.722;2023-06-04T13:21:13;100694.87;;;25.27;26.30
71299;BME280;59083;47.974;21.722;2023-06-04T13:24:14;100689.72;;;25.21;26.24
71299;BME280;59083;47.974;21.722;2023-06-04T13:27:16;100694.59;;;25.24;26.63
71299;BME280;59083;47.974;21.722;2023-06-04T13:30:17;100693.78;;;25.33;26.40
71299;BME280;59083;47.974;21.722;2023-06-04T13:33:18;100692.47;;;25.05;26.33
71299;BME280;59083;47.974;21.722;2023-06-04T13:36:21;100698.75;;;25.06;26.43
71299;BME280;59083;47.974;21.722;2023-06-04T13:39:22;100686.75;;;25.02;26.80
71299;BME280;59083;47.974;21.722;2023-06-04T13:42:23;100694.63;;;25.19;26.84
71299;BME280;59083;47.974;21.722;2023-06-04T13:45:24;100685.94;;;25.12;26.90
71299;BME280;59083;47.974;21.722;2023-06-04T13:48:26;100675.56;;;25.08;26.77
71299;BME280;59083;47.974;21.722;2023-06-04T13:51:27;100680.47;;;25.17;27.17
71299;BME280;59083;47.974;21.722;2023-06-04T13:54:31;100684.25;;;25.21;26.76
71299;BME280;59083;47.974;21.722;2023-06-04T13:57:32;100676.88;;;25.26;26.93
71299;BME280;59083;47.974;21.722;2023-06-04T14:00:33;100674.69;;;25.23;27.10
71299;BME280;59083;47.974;21.722;2023-06-04T14:03:35;100682.06;;;25.23;27.09
71299;BME280;59083;47.974;21.722;2023-06-04T14:06:36;100678.84;;;25.10;26.88
71299;BME280;59083;47.974;21.722;2023-06-04T14:09:38;100671.69;;;25.20;26.94
71299;BME280;59083;47.974;21.722;2023-06-04T14:12:40;100671.72;;;25.15;26.71
71299;BME280;59083;47.974;21.722;2023-06-04T14:15:42;100676.09;;;25.00;26.62
71299;BME280;59083;47.974;21.722;2023-06-04T14:18:43;100677.22;;;24.89;26.65
71299;BME280;59083;47.974;21.722;2023-06-04T14:21:44;100675.03;;;24.81;27.35
71299;BME280;59083;47.974;21.722;2023-06-04T14:24:45;100663.59;;;24.64;27.43
71299;BME280;59083;47.974;21.722;2023-06-04T14:27:47;100657.56;;;24.67;27.57
71299;BME280;59083;47.974;21.722;2023-06-04T14:30:48;100661.94;;;24.73;27.43
71299;BME280;59083;47.974;21.722;2023-06-04T14:33:49;100667.41;;;24.93;27.19
71299;BME280;59083;47.974;21.722;2023-06-04T14:36:50;100665.19;;;25.05;27.21
71299;BME280;59083;47.974;21.722;2023-06-04T14:39:51;100664.09;;;25.01;27.52
71299;BME280;59083;47.974;21.722;2023-06-04T14:42:52;100655.38;;;24.79;27.37
71299;BME280;59083;47.974;21.722;2023-06-04T14:45:54;100653.75;;;24.68;27.53
71299;BME280;59083;47.974;21.722;2023-06-04T14:48:55;100649.97;;;24.49;26.96
71299;BME280;59083;47.974;21.722;2023-06-04T14:51:56;100652.66;;;24.44;27.50
71299;BME280;59083;47.974;21.722;2023-06-04T14:54:57;100643.97;;;24.52;27.44
71299;BME280;59083;47.974;21.722;2023-06-04T14:57:59;100644.53;;;24.49;27.20
71299;BME280;59083;47.974;21.722;2023-06-04T15:01:00;100643.41;;;24.55;27.44
71299;BME280;59083;47.974;21.722;2023-06-04T15:04:04;100640.97;;;24.53;27.45
71299;BME280;59083;47.974;21.722;2023-06-04T15:07:05;100651.84;;;24.74;27.69
71299;BME280;59083;47.974;21.722;2023-06-04T15:10:07;100643.66;;;24.79;27.35
71299;BME280;59083;47.974;21.722;2023-06-04T15:13:09;100643.69;;;24.63;27.48
71299;BME280;59083;47.974;21.722;2023-06-04T15:16:11;100646.16;;;24.65;27.55
71299;BME280;59083;47.974;21.722;2023-06-04T15:19:12;100646.13;;;24.75;27.52
71299;BME280;59083;47.974;21.722;2023-06-04T15:22:13;100636.06;;;24.40;27.24
71299;BME280;59083;47.974;21.722;2023-06-04T15:25:14;100635.78;;;24.37;26.90
71299;BME280;59083;47.974;21.722;2023-06-04T15:28:15;100630.84;;;24.13;26.88
71299;BME280;59083;47.974;21.722;2023-06-04T15:31:16;100624.84;;;24.06;26.92
71299;BME280;59083;47.974;21.722;2023-06-04T15:34:18;100622.72;;;24.18;27.61
71299;BME280;59083;47.974;21.722;2023-06-04T15:37:19;100628.66;;;24.15;28.00
71299;BME280;59083;47.974;21.722;2023-06-04T15:40:21;100632.78;;;24.23;27.73